EDDGOSDI

Guest
Details From EDDG - Muenster Osnabrueck
To OSDI - Damascus Intl
Flight Number -
Tags Generated
Created
Modified
Stats Distance 1,678 nm / 3,109 km
Max Altitude 0 ft / 0 m
Waypoints 6
Social Downloads 6
Likes 0
Share VATSIM

Download

Looking for another format? Having issues loading an existing format? Contact us
Advertisement - Login to hide

Notes

Generated

Route

EDDG KV29S GYR KARGI DAM02 OSDI

ID Type Via Altitude Latitude Longitude Leg Dist Tot Dist Heading (true) Name
O EDDG APT - 0 ft / 0 m 52.13151˚ 7.67006˚ - 0 nm - -
KV29S FIX - 0 ft / 0 m 50.07489˚ 12.76141˚ 228 nm 228 nm 121° / 125° -
GYR VOR - 0 ft / 0 m 47.65911˚ 17.72435˚ 243 nm 472 nm 125° / 128° GYOR VOR-DME
KARGI FIX - 0 ft / 0 m 39.42917˚ 30.05444˚ 728 nm 1200 nm 128° / 137° -
DAM02 FIX - 0 ft / 0 m 33.39765˚ 36.48247˚ 476 nm 1677 nm 137° / 141° -
O OSDI APT - 0 ft / 0 m 33.41489˚ 36.50367˚ 1 nm 1678 nm 46° / 46° -

Altitude Profile

Advertisement - Login to hide

Weather


0- 5 10 15 20 25 30 35+ Temperature / ° C

Clouds and Precipitation
Forecast for 2017-12-14 00:00 UTC. Updated 2 hours ago

Ground ~20,000 ft ~40,000 ft Winds

EDDG

Details ICAO EDDG (FMO)
Name Muenster Osnabrueck
Region Germany - Civil
Timezone Europe/Berlin (UTC+1.0)
Stats Elevation 159 ft / 48 m (AMSL)
Location 52.134580° 7.684669°
Runways 1
Magnetic Variation 2.068° E

METAR

EDDG 140050Z 25016KT 9999 FEW017 BKN022 05/02 Q0986 NOSIG

Decode

TAF

TAF EDDG 132300Z 1400/1424 23012KT 9999 BKN020 TEMPO 1400/1402 26015G25KT TEMPO 1405/1409 SHRASN BKN008CB PROB30 TEMPO 1406/1408 24020G30KT TSRA TEMPO 1409/1415 24015G25KT PROB30 TEMPO 1410/1413 24020G30KT BECMG 1415/1418 20007KT

Decode

Departure Runways

ID Width Length Bearing (true) Bearing (mag) Surface Threshold Offset Overrun Length
07 148 ft / 45 m 7,303 ft / 2,226 m 70.93° 68.86° Asphalt 151 ft / 46 m 0 ft / 0 m
25 148 ft / 45 m 7,303 ft / 2,226 m 250.96° 248.89° Asphalt 292 ft / 89 m 0 ft / 0 m

OSDI

Details ICAO OSDI (DAM)
Name DAMASCUS INTL
Region Syria
Timezone Asia/Damascus (UTC+2.0)
Stats Elevation 2,020 ft / 616 m (AMSL)
Location 33.410635° 36.514265°
Runways 2
Magnetic Variation 4.872° E

METAR

OSDI 140100Z 22003KT 3000 BR 05/04 Q1018

Decode

TAF

Not found

Destination Runways

ID Width Length Bearing (true) Bearing (mag) Surface Threshold Offset Overrun Length
05L 148 ft / 45 m 11,808 ft / 3,599 m 48.36° 43.49° Asphalt 0 ft / 0 m 197 ft / 60 m
05R 148 ft / 45 m 11,674 ft / 3,558 m 48.33° 43.46° Asphalt 0 ft / 0 m 197 ft / 60 m
23L 148 ft / 45 m 11,674 ft / 3,558 m 228.35° 223.48° Asphalt 0 ft / 0 m 197 ft / 60 m
23R 148 ft / 45 m 11,808 ft / 3,599 m 228.38° 223.51° Asphalt 0 ft / 0 m 197 ft / 60 m

Approach Navaids

Runway Type Ident Frequency Range Bearing (true) Bearing (mag) Slope Elevation
23R Localiser IDA 109.90 MHz 18 nm / 33 km 227.88° 223.01° - 2,033 ft / 620 m (AMSL)
23R Glidescope IDA 109.90 MHz 10 nm / 19 km 228.37° 223.50° 3.00° 2,033 ft / 620 m (AMSL)